Time;durP1;ratioP1;P1;durP2;ratioP2;P2;SDS_P1;SDS_P2;PMS_P1;PMS_P2;Temp;Humidity;BMP_temperature;BMP_pressure;BME280_temperature;BME280_humidity;BME280_pressure;Samples;Min_cycle;Max_cycle;Signal;HPM_P1;HPM_P2
2022/07/31 00:02:15;;;;;;;;;;;23.20;99.90;;;;;;5072959;28;19967;-82
2022/07/31 00:04:40;;;;;;;;;;;23.20;99.90;;;;;;5072846;28;19934;-82
2022/07/31 00:07:06;;;;;;;;;;;23.10;99.90;;;;;;5088371;28;19908;-82
2022/07/31 00:09:31;;;;;;;;;;;23.10;99.90;;;;;;5071800;28;19909;-82
2022/07/31 00:11:57;;;;;;;;;;;23.10;99.90;;;;;;5072979;28;19919;-82
2022/07/31 00:14:22;;;;;;;;;;;23.10;99.90;;;;;;5072975;28;20460;-82
2022/07/31 00:16:48;;;;;;;;;;;23.00;99.90;;;;;;5072543;28;19915;-82
2022/07/31 00:19:13;;;;;;;;;;;23.00;99.90;;;;;;5071374;28;20012;-82
2022/07/31 00:21:39;;;;;;;;;;;23.00;99.90;;;;;;5071664;28;20390;-82
2022/07/31 00:24:04;;;;;;;;;;;23.00;99.90;;;;;;5071280;28;19924;-82
2022/07/31 00:26:30;;;;;;;;;;;23.00;99.90;;;;;;5070886;28;19963;-82
2022/07/31 00:28:55;;;;;;;;;;;23.00;99.90;;;;;;5071301;28;19908;-82
2022/07/31 00:31:21;;;;;;;;;;;23.00;99.90;;;;;;5071515;28;19908;-82
2022/07/31 00:33:46;;;;;;;;;;;22.90;99.90;;;;;;5071311;28;19908;-82
2022/07/31 00:36:12;;;;;;;;;;;22.90;99.90;;;;;;5071132;28;19908;-82
2022/07/31 00:38:38;;;;;;;;;;;22.80;99.90;;;;;;5070962;28;19912;-82
2022/07/31 00:41:03;;;;;;;;;;;22.80;99.90;;;;;;5073188;28;20009;-82
2022/07/31 00:43:29;;;;;;;;;;;22.80;99.90;;;;;;5074776;28;19908;-82
2022/07/31 00:45:56;;;;;;;;;;;22.70;99.90;;;;;;5075864;28;19909;-81
2022/07/31 00:48:22;;;;;;;;;;;22.70;99.90;;;;;;5076008;28;20491;-81
2022/07/31 00:50:47;;;;;;;;;;;22.70;99.90;;;;;;5074881;28;19915;-82
2022/07/31 00:53:13;;;;;;;;;;;22.70;99.90;;;;;;5092040;28;19916;-82
2022/07/31 00:55:38;;;;;;;;;;;22.60;99.90;;;;;;5074756;28;19934;-81
2022/07/31 00:58:04;;;;;;;;;;;22.60;99.90;;;;;;5076850;28;19955;-82
2022/07/31 01:00:29;;;;;;;;;;;22.50;99.90;;;;;;5075863;28;19970;-82
2022/07/31 01:02:55;;;;;;;;;;;22.50;99.90;;;;;;5091922;28;19908;-82
2022/07/31 01:05:20;;;;;;;;;;;22.50;99.90;;;;;;5074466;28;20383;-82
2022/07/31 01:07:47;;;;;;;;;;;22.40;99.90;;;;;;5073986;28;19909;-82
2022/07/31 01:10:15;;;;;;;;;;;22.40;99.90;;;;;;5075846;28;19909;-82
2022/07/31 01:12:46;;;;;;;;;;;22.40;99.90;;;;;;5096961;28;19916;-83
2022/07/31 01:15:12;;;;;;;;;;;22.40;99.90;;;;;;5089865;28;19966;-84
2022/07/31 01:17:38;;;;;;;;;;;22.30;99.90;;;;;;5089366;28;19916;-83
2022/07/31 01:20:04;;;;;;;;;;;22.30;99.90;;;;;;5089556;28;19955;-84
2022/07/31 01:22:42;;;;;;;;;;;22.30;99.90;;;;;;5088787;28;19912;-84
2022/07/31 01:25:14;;;;;;;;;;;22.30;99.90;;;;;;5087129;28;19930;-85
2022/07/31 01:27:43;;;;;;;;;;;22.20;99.90;;;;;;5085115;28;19954;-86
2022/07/31 01:30:09;;;;;;;;;;;22.20;99.90;;;;;;5074405;28;20425;-85
2022/07/31 01:32:37;;;;;;;;;;;22.20;99.90;;;;;;5073516;28;19909;-84
2022/07/31 01:35:02;;;;;;;;;;;22.20;99.90;;;;;;5073447;28;19992;-84
2022/07/31 01:37:42;;;;;;;;;;;22.20;99.90;;;;;;5074425;28;20019;-84
2022/07/31 01:40:10;;;;;;;;;;;22.10;99.90;;;;;;5074707;28;20336;-85
2022/07/31 01:42:38;;;;;;;;;;;22.10;99.90;;;;;;5073286;28;19909;-83
2022/07/31 01:45:05;;;;;;;;;;;22.10;99.90;;;;;;5073158;28;19912;-85
2022/07/31 01:47:31;;;;;;;;;;;22.10;99.90;;;;;;5072887;28;19912;-84
2022/07/31 01:49:58;;;;;;;;;;;22.10;99.90;;;;;;5073288;28;19912;-85
2022/07/31 01:52:25;;;;;;;;;;;22.00;99.90;;;;;;5074272;28;19913;-85
2022/07/31 01:54:52;;;;;;;;;;;22.00;99.90;;;;;;5074358;28;19915;-85
2022/07/31 01:57:18;;;;;;;;;;;22.00;99.90;;;;;;5074338;28;19916;-84
2022/07/31 01:59:45;;;;;;;;;;;22.00;99.90;;;;;;5074706;28;19958;-84
2022/07/31 02:02:11;;;;;;;;;;;21.90;99.90;;;;;;5073122;28;19918;-84
2022/07/31 02:04:37;;;;;;;;;;;21.90;99.90;;;;;;5073613;28;20007;-85
2022/07/31 02:07:03;;;;;;;;;;;21.90;99.90;;;;;;5073037;28;20327;-84
2022/07/31 02:09:30;;;;;;;;;;;21.90;99.90;;;;;;5074640;28;19948;-84
2022/07/31 02:11:56;;;;;;;;;;;21.80;99.90;;;;;;5073197;28;19908;-84
2022/07/31 02:14:23;;;;;;;;;;;21.80;99.90;;;;;;5073028;28;20394;-84
2022/07/31 02:16:48;;;;;;;;;;;21.80;99.90;;;;;;5073817;28;19909;-84
2022/07/31 02:19:14;;;;;;;;;;;21.80;99.90;;;;;;5073124;28;19919;-85
2022/07/31 02:21:40;;;;;;;;;;;21.80;99.90;;;;;;5074087;28;19912;-85
2022/07/31 02:24:06;;;;;;;;;;;21.80;99.90;;;;;;5072874;28;19939;-84
2022/07/31 02:26:33;;;;;;;;;;;21.70;99.90;;;;;;5072506;28;20299;-84
2022/07/31 02:28:59;;;;;;;;;;;21.70;99.90;;;;;;5073894;28;19916;-84
2022/07/31 02:31:25;;;;;;;;;;;21.70;99.90;;;;;;5072630;28;19908;-84
2022/07/31 02:33:51;;;;;;;;;;;21.70;99.90;;;;;;5072795;28;19913;-85
2022/07/31 02:36:18;;;;;;;;;;;21.60;99.90;;;;;;5072046;28;19909;-84
2022/07/31 02:38:44;;;;;;;;;;;21.60;99.90;;;;;;5072416;28;19917;-84
2022/07/31 02:41:10;;;;;;;;;;;21.70;99.90;;;;;;5072472;28;20344;-84
2022/07/31 02:43:37;;;;;;;;;;;21.70;99.90;;;;;;5072372;28;20010;-84
2022/07/31 02:46:03;;;;;;;;;;;21.80;99.90;;;;;;5071999;28;20009;-85
2022/07/31 02:48:29;;;;;;;;;;;21.80;99.90;;;;;;5072078;28;19909;-84
2022/07/31 02:50:55;;;;;;;;;;;21.70;99.90;;;;;;5073693;28;20004;-84
2022/07/31 02:53:21;;;;;;;;;;;21.80;99.90;;;;;;5072098;28;19908;-84
2022/07/31 02:55:48;;;;;;;;;;;21.80;99.90;;;;;;5071936;28;19909;-85
2022/07/31 02:58:13;;;;;;;;;;;21.80;99.90;;;;;;5072007;28;19919;-83
2022/07/31 03:00:39;;;;;;;;;;;21.80;99.90;;;;;;5072561;28;20044;-84
2022/07/31 03:03:04;;;;;;;;;;;21.80;99.90;;;;;;5072069;28;19916;-84
2022/07/31 03:05:30;;;;;;;;;;;21.80;99.90;;;;;;5072352;28;19974;-86
2022/07/31 03:07:55;;;;;;;;;;;21.80;99.90;;;;;;5071713;28;19915;-85
2022/07/31 03:10:21;;;;;;;;;;;21.80;99.90;;;;;;5073256;28;20478;-84
2022/07/31 03:12:48;;;;;;;;;;;21.90;99.90;;;;;;5071991;28;19908;-84
2022/07/31 03:15:15;;;;;;;;;;;21.90;99.90;;;;;;5071067;28;19916;-85
2022/07/31 03:17:42;;;;;;;;;;;21.90;99.90;;;;;;5071410;28;20379;-84
2022/07/31 03:20:08;;;;;;;;;;;21.90;99.90;;;;;;5071691;28;19909;-85
2022/07/31 03:22:33;;;;;;;;;;;21.90;99.90;;;;;;5071897;28;19931;-82
2022/07/31 03:24:59;;;;;;;;;;;21.90;99.90;;;;;;5071869;28;19912;-83
2022/07/31 03:27:25;;;;;;;;;;;22.00;99.90;;;;;;5073029;28;20394;-82
2022/07/31 03:29:50;;;;;;;;;;;22.00;99.90;;;;;;5071982;28;19908;-82
2022/07/31 03:32:16;;;;;;;;;;;22.00;99.90;;;;;;5072148;28;19909;-82
2022/07/31 03:34:42;;;;;;;;;;;22.00;99.90;;;;;;5071793;28;19954;-82
2022/07/31 03:37:09;;;;;;;;;;;22.00;99.90;;;;;;5072453;28;19909;-82
2022/07/31 03:39:34;;;;;;;;;;;22.10;99.90;;;;;;5072994;28;19909;-82
2022/07/31 03:42:00;;;;;;;;;;;22.00;99.90;;;;;;5072289;28;20290;-82
2022/07/31 03:44:27;;;;;;;;;;;22.10;99.90;;;;;;5072140;28;19909;-83
2022/07/31 03:46:52;;;;;;;;;;;22.10;99.90;;;;;;5071281;28;19915;-82
2022/07/31 03:49:18;;;;;;;;;;;22.20;99.90;;;;;;5071717;28;19908;-82
2022/07/31 03:51:44;;;;;;;;;;;22.20;99.90;;;;;;5073020;28;19909;-82
2022/07/31 03:54:10;;;;;;;;;;;22.20;99.90;;;;;;5071821;28;20386;-82
2022/07/31 03:56:36;;;;;;;;;;;22.20;99.90;;;;;;5071304;28;19935;-82
2022/07/31 03:59:02;;;;;;;;;;;22.20;99.90;;;;;;5073197;28;19912;-82
2022/07/31 04:01:28;;;;;;;;;;;22.20;99.90;;;;;;5071687;28;19924;-82
2022/07/31 04:03:59;;;;;;;;;;;22.20;99.90;;;;;;5071597;28;19913;-84
2022/07/31 04:06:25;;;;;;;;;;;22.20;99.90;;;;;;5071034;28;20322;-84
2022/07/31 04:08:50;;;;;;;;;;;22.20;99.90;;;;;;5071289;28;19958;-84
2022/07/31 04:11:16;;;;;;;;;;;22.10;99.90;;;;;;5072409;28;20003;-85
2022/07/31 04:13:42;;;;;;;;;;;22.20;99.90;;;;;;5071043;28;19909;-84
2022/07/31 04:16:07;;;;;;;;;;;22.10;99.90;;;;;;5135811;23;19974;-74
2022/07/31 04:18:33;;;;;;;;;;;22.20;99.90;;;;;;5108953;28;19916;-74
2022/07/31 04:20:59;;;;;;;;;;;22.20;99.90;;;;;;5097945;28;20247;-74
2022/07/31 04:23:24;;;;;;;;;;;22.30;99.90;;;;;;5109946;28;20294;-73
2022/07/31 04:25:50;;;;;;;;;;;22.30;99.90;;;;;;5108315;28;20049;-74
2022/07/31 04:28:16;;;;;;;;;;;22.30;99.90;;;;;;5115069;28;19908;-74
2022/07/31 04:30:42;;;;;;;;;;;22.30;99.90;;;;;;5114930;28;19907;-74
2022/07/31 04:33:08;;;;;;;;;;;22.30;99.90;;;;;;5109499;28;20035;-74
2022/07/31 04:35:33;;;;;;;;;;;22.40;99.90;;;;;;5106102;28;19981;-74
2022/07/31 04:37:59;;;;;;;;;;;22.30;99.90;;;;;;5114676;28;19912;-74
2022/07/31 04:40:26;;;;;;;;;;;22.30;99.90;;;;;;5114822;28;19908;-73
2022/07/31 04:42:52;;;;;;;;;;;22.40;99.90;;;;;;5114921;28;19907;-74
2022/07/31 04:45:18;;;;;;;;;;;22.40;99.90;;;;;;5114701;28;19911;-74
2022/07/31 04:47:43;;;;;;;;;;;22.40;99.90;;;;;;5114669;28;19914;-74
2022/07/31 04:50:09;;;;;;;;;;;22.50;99.90;;;;;;5114733;28;19907;-74
2022/07/31 04:52:34;;;;;;;;;;;22.50;99.90;;;;;;5114483;28;19947;-74
2022/07/31 04:55:00;;;;;;;;;;;22.50;99.90;;;;;;5114572;28;19908;-74
2022/07/31 04:57:26;;;;;;;;;;;22.50;99.90;;;;;;5114032;28;19918;-74
2022/07/31 04:59:51;;;;;;;;;;;22.50;99.90;;;;;;5114687;28;19954;-74
2022/07/31 05:02:17;;;;;;;;;;;22.60;99.90;;;;;;5114381;27;19916;-74
2022/07/31 05:04:42;;;;;;;;;;;22.60;99.90;;;;;;5114334;28;19958;-74
2022/07/31 05:07:08;;;;;;;;;;;22.50;99.90;;;;;;5114191;28;20041;-75
2022/07/31 05:09:34;;;;;;;;;;;22.60;99.90;;;;;;5102867;28;20299;-74
2022/07/31 05:12:00;;;;;;;;;;;22.60;99.90;;;;;;5109124;28;19915;-74
2022/07/31 05:14:26;;;;;;;;;;;22.50;99.90;;;;;;5107484;28;19908;-74
2022/07/31 05:16:51;;;;;;;;;;;22.60;99.90;;;;;;5099036;28;19920;-74
2022/07/31 05:19:17;;;;;;;;;;;22.60;99.90;;;;;;5105281;28;20176;-74
2022/07/31 05:21:43;;;;;;;;;;;22.70;99.90;;;;;;5114080;28;19908;-74
2022/07/31 05:24:09;;;;;;;;;;;22.80;99.90;;;;;;5113893;28;19961;-74
2022/07/31 05:26:34;;;;;;;;;;;22.90;99.90;;;;;;5113813;28;19955;-74
2022/07/31 05:29:01;;;;;;;;;;;22.90;99.90;;;;;;5112699;28;19908;-74
2022/07/31 05:31:27;;;;;;;;;;;23.00;99.90;;;;;;5113890;28;19998;-74
2022/07/31 05:33:53;;;;;;;;;;;23.00;99.90;;;;;;5114341;28;19970;-74
2022/07/31 05:36:20;;;;;;;;;;;23.00;99.90;;;;;;5113454;28;20290;-74
2022/07/31 05:38:45;;;;;;;;;;;22.90;99.90;;;;;;5113630;28;20366;-74
2022/07/31 05:41:11;;;;;;;;;;;23.00;99.90;;;;;;5113550;28;19908;-74
2022/07/31 05:43:37;;;;;;;;;;;23.10;99.90;;;;;;5113313;28;19977;-74
2022/07/31 05:46:04;;;;;;;;;;;23.10;99.90;;;;;;5112612;28;20003;-75
2022/07/31 05:48:30;;;;;;;;;;;23.10;99.90;;;;;;5113469;28;19914;-74
2022/07/31 05:50:56;;;;;;;;;;;23.10;99.90;;;;;;5113415;28;19908;-74
2022/07/31 05:53:21;;;;;;;;;;;23.20;99.90;;;;;;5113479;28;19914;-74
2022/07/31 05:55:48;;;;;;;;;;;23.20;99.90;;;;;;5113180;28;20664;-75
2022/07/31 05:58:14;;;;;;;;;;;23.20;99.90;;;;;;5113120;28;20286;-74
2022/07/31 06:00:40;;;;;;;;;;;23.20;99.90;;;;;;5113356;28;19908;-75
2022/07/31 06:03:06;;;;;;;;;;;23.20;99.90;;;;;;5113248;27;20256;-74
2022/07/31 06:05:32;;;;;;;;;;;23.30;99.90;;;;;;5113193;28;19968;-74
2022/07/31 06:07:58;;;;;;;;;;;23.30;99.90;;;;;;5112934;28;19912;-74
2022/07/31 06:10:24;;;;;;;;;;;23.30;99.90;;;;;;5113053;28;19908;-74
2022/07/31 06:12:49;;;;;;;;;;;23.40;99.90;;;;;;5112891;28;19999;-74
2022/07/31 06:15:15;;;;;;;;;;;23.40;99.90;;;;;;5113325;28;19916;-74
2022/07/31 06:17:41;;;;;;;;;;;23.30;99.90;;;;;;5112614;28;19923;-74
2022/07/31 06:20:07;;;;;;;;;;;23.40;99.90;;;;;;5113020;28;20324;-74
2022/07/31 06:22:33;;;;;;;;;;;23.30;99.90;;;;;;5112932;28;19998;-75
2022/07/31 06:24:58;;;;;;;;;;;23.30;99.90;;;;;;5113895;28;19950;-76
2022/07/31 06:27:24;;;;;;;;;;;23.20;99.90;;;;;;5112811;28;19915;-75
2022/07/31 06:29:55;;;;;;;;;;;23.20;99.90;;;;;;5112599;28;19915;-75
2022/07/31 06:32:20;;;;;;;;;;;23.10;99.90;;;;;;5112913;28;19914;-75
2022/07/31 06:34:46;;;;;;;;;;;23.10;99.90;;;;;;5112478;28;19908;-75
2022/07/31 06:37:12;;;;;;;;;;;23.10;99.90;;;;;;5112301;28;20389;-75
2022/07/31 06:39:37;;;;;;;;;;;23.20;99.90;;;;;;5112133;28;20330;-75
2022/07/31 06:42:03;;;;;;;;;;;23.20;99.90;;;;;;5112381;28;19908;-75
2022/07/31 06:44:29;;;;;;;;;;;23.20;99.90;;;;;;5112142;28;19915;-74
2022/07/31 06:46:55;;;;;;;;;;;23.30;99.90;;;;;;5112128;28;19960;-76
2022/07/31 06:49:20;;;;;;;;;;;23.30;99.90;;;;;;5112203;28;19911;-76
2022/07/31 06:51:46;;;;;;;;;;;23.30;99.90;;;;;;5112296;28;19947;-75
2022/07/31 06:54:12;;;;;;;;;;;23.40;99.90;;;;;;5112354;28;20409;-76
2022/07/31 06:56:38;;;;;;;;;;;23.30;99.90;;;;;;5111541;28;19964;-76
2022/07/31 06:59:04;;;;;;;;;;;23.50;99.90;;;;;;5111279;28;19915;-76
2022/07/31 07:01:30;;;;;;;;;;;23.60;99.90;;;;;;5110818;28;20297;-77
2022/07/31 07:03:56;;;;;;;;;;;23.50;99.90;;;;;;5111504;28;19957;-77
2022/07/31 07:06:22;;;;;;;;;;;23.50;99.90;;;;;;5111791;28;19908;-76
2022/07/31 07:08:48;;;;;;;;;;;23.50;99.90;;;;;;5111986;28;19962;-77
2022/07/31 07:11:13;;;;;;;;;;;23.40;99.90;;;;;;5111872;27;19989;-77
2022/07/31 07:13:39;;;;;;;;;;;23.40;99.90;;;;;;5112096;28;19960;-77
2022/07/31 07:16:05;;;;;;;;;;;23.30;99.90;;;;;;5111746;28;19915;-77
2022/07/31 07:18:31;;;;;;;;;;;23.10;99.90;;;;;;5111570;28;20333;-76
2022/07/31 07:20:56;;;;;;;;;;;23.10;99.90;;;;;;5112127;28;19919;-76
2022/07/31 07:23:22;;;;;;;;;;;23.10;99.90;;;;;;5111693;28;19907;-77
2022/07/31 07:25:48;;;;;;;;;;;23.00;99.90;;;;;;5111833;28;19912;-76
2022/07/31 07:28:14;;;;;;;;;;;22.80;99.90;;;;;;5111644;28;19942;-76
2022/07/31 07:30:39;;;;;;;;;;;22.80;99.90;;;;;;5113076;28;20321;-77
2022/07/31 07:33:05;;;;;;;;;;;22.80;99.90;;;;;;5111867;28;19907;-77
2022/07/31 07:35:31;;;;;;;;;;;22.70;99.90;;;;;;5111549;28;19908;-77
2022/07/31 07:37:57;;;;;;;;;;;22.60;99.90;;;;;;5111220;28;20390;-77
2022/07/31 07:40:23;;;;;;;;;;;22.60;99.90;;;;;;5111537;28;19915;-77
2022/07/31 07:42:49;;;;;;;;;;;22.70;99.90;;;;;;5111826;28;19958;-77
2022/07/31 07:45:15;;;;;;;;;;;22.90;99.90;;;;;;5111581;28;19911;-77
2022/07/31 07:47:40;;;;;;;;;;;22.90;99.90;;;;;;5111391;28;19914;-77
2022/07/31 07:50:06;;;;;;;;;;;23.00;99.90;;;;;;5111594;28;19915;-77
2022/07/31 07:52:32;;;;;;;;;;;23.10;99.90;;;;;;5111398;28;20401;-77
2022/07/31 07:54:58;;;;;;;;;;;23.20;99.90;;;;;;5111300;28;19919;-77
2022/07/31 07:57:24;;;;;;;;;;;23.30;99.90;;;;;;5111144;28;19908;-77
2022/07/31 07:59:49;;;;;;;;;;;23.60;99.90;;;;;;5111193;28;19915;-77
2022/07/31 08:02:15;;;;;;;;;;;23.70;99.90;;;;;;5111708;28;20248;-77
2022/07/31 08:04:41;;;;;;;;;;;23.80;99.90;;;;;;5111965;28;19991;-77
2022/07/31 08:07:07;;;;;;;;;;;24.00;99.90;;;;;;5111369;28;19907;-77
2022/07/31 08:09:33;;;;;;;;;;;24.30;99.90;;;;;;5111575;28;20284;-76
2022/07/31 08:11:59;;;;;;;;;;;24.50;99.90;;;;;;5111206;28;20003;-77
2022/07/31 08:14:24;;;;;;;;;;;25.00;99.90;;;;;;5110893;28;20282;-77
2022/07/31 08:16:50;;;;;;;;;;;25.20;99.90;;;;;;5110713;28;20007;-77
2022/07/31 08:19:16;;;;;;;;;;;25.10;99.90;;;;;;5111484;28;19912;-76
2022/07/31 08:21:42;;;;;;;;;;;25.80;99.90;;;;;;5111134;28;19908;-75
2022/07/31 08:24:09;;;;;;;;;;;26.50;99.90;;;;;;5111193;28;19912;-75
2022/07/31 08:29:19;;;;;;;;;;;26.90;99.90;;;;;;5112747;28;20320;-76
2022/07/31 08:31:45;;;;;;;;;;;27.80;99.90;;;;;;5111228;28;19908;-77
2022/07/31 08:34:11;;;;;;;;;;;28.80;99.90;;;;;;5111224;28;19908;-77
2022/07/31 08:36:37;;;;;;;;;;;29.10;99.90;;;;;;5111563;28;19912;-75
2022/07/31 08:39:03;;;;;;;;;;;29.00;99.90;;;;;;5110823;28;20014;-76
2022/07/31 08:41:29;;;;;;;;;;;28.00;99.90;;;;;;5087988;28;20367;-75
2022/07/31 08:43:55;;;;;;;;;;;27.90;99.90;;;;;;5086598;28;19975;-76
2022/07/31 08:46:21;;;;;;;;;;;27.70;99.90;;;;;;5085351;28;20376;-75
2022/07/31 08:48:48;;;;;;;;;;;27.20;99.90;;;;;;5069478;28;20476;-76
2022/07/31 08:51:14;;;;;;;;;;;27.20;99.90;;;;;;5071081;28;20383;-75
2022/07/31 08:53:41;;;;;;;;;;;27.30;99.90;;;;;;5069590;28;19909;-75
2022/07/31 08:56:07;;;;;;;;;;;27.20;99.90;;;;;;5069826;28;20283;-75
2022/07/31 08:58:32;;;;;;;;;;;26.70;99.90;;;;;;5069682;28;19912;-75
2022/07/31 09:00:58;;;;;;;;;;;26.60;99.90;;;;;;5069806;28;19915;-75
2022/07/31 09:03:24;;;;;;;;;;;26.40;99.90;;;;;;5070812;28;19908;-76
2022/07/31 09:05:49;;;;;;;;;;;26.40;99.90;;;;;;5073705;28;19909;-75
2022/07/31 09:08:15;;;;;;;;;;;26.10;99.90;;;;;;5074020;28;20000;-76
2022/07/31 09:10:41;;;;;;;;;;;26.20;99.90;;;;;;5082912;28;19911;-76
2022/07/31 09:13:17;;;;;;;;;;;26.80;99.90;;;;;;5090811;28;19908;-75
2022/07/31 09:15:43;;;;;;;;;;;27.00;99.90;;;;;;5095201;28;20382;-76
2022/07/31 09:18:16;;;;;;;;;;;27.00;99.90;;;;;;5108992;28;20434;-76
2022/07/31 09:20:51;;;;;;;;;;;26.90;99.90;;;;;;5113242;28;19991;-76
2022/07/31 09:23:21;;;;;;;;;;;26.50;99.90;;;;;;5113336;28;20291;-76
2022/07/31 09:25:51;;;;;;;;;;;26.30;99.90;;;;;;5113646;27;19907;-76
2022/07/31 09:28:16;;;;;;;;;;;27.00;99.90;;;;;;5113644;28;19947;-76
2022/07/31 09:30:52;;;;;;;;;;;28.00;99.90;;;;;;5113194;28;19943;-76
2022/07/31 09:33:18;;;;;;;;;;;28.60;99.90;;;;;;5113452;28;20053;-76
2022/07/31 09:35:51;;;;;;;;;;;28.40;99.90;;;;;;5113093;28;19908;-76
2022/07/31 09:38:17;;;;;;;;;;;28.20;99.90;;;;;;5113042;28;19912;-75
2022/07/31 09:40:43;;;;;;;;;;;28.00;99.90;;;;;;5113018;28;19915;-76
2022/07/31 09:43:15;;;;;;;;;;;28.90;99.90;;;;;;5113340;28;19908;-76
2022/07/31 09:45:43;;;;;;;;;;;28.70;99.90;;;;;;5112816;28;19908;-76
2022/07/31 09:48:11;;;;;;;;;;;28.40;99.90;;;;;;5113596;27;20376;-76
2022/07/31 09:50:37;;;;;;;;;;;28.40;99.90;;;;;;5113203;28;19926;-76
2022/07/31 09:53:05;;;;;;;;;;;28.10;99.90;;;;;;5113757;28;20225;-75
2022/07/31 09:55:31;;;;;;;;;;;27.90;99.90;;;;;;5113087;28;19908;-75
2022/07/31 09:57:58;;;;;;;;;;;28.00;99.90;;;;;;5112062;28;20282;-76
2022/07/31 10:00:24;;;;;;;;;;;28.00;99.90;;;;;;5112935;28;19915;-75
2022/07/31 10:02:54;;;;;;;;;;;28.80;99.90;;;;;;5112703;28;19931;-75
2022/07/31 10:05:21;;;;;;;;;;;28.60;99.90;;;;;;5113165;28;19908;-76
2022/07/31 10:07:47;;;;;;;;;;;28.60;99.90;;;;;;5112737;28;19915;-76
2022/07/31 10:10:14;;;;;;;;;;;28.70;99.90;;;;;;5112727;28;19917;-76
2022/07/31 10:12:41;;;;;;;;;;;28.30;99.90;;;;;;5112611;28;19952;-76
2022/07/31 10:15:09;;;;;;;;;;;28.40;99.90;;;;;;5112559;28;20011;-76
2022/07/31 10:17:38;;;;;;;;;;;28.30;99.90;;;;;;5112320;28;19918;-76
2022/07/31 10:20:05;;;;;;;;;;;28.40;99.90;;;;;;5112220;28;19907;-76
2022/07/31 10:25:12;;;;;;;;;;;28.40;99.90;;;;;;5106921;28;19931;-76
2022/07/31 10:27:38;;;;;;;;;;;28.60;99.90;;;;;;5077947;28;19908;-76
2022/07/31 10:30:05;;;;;;;;;;;28.80;99.90;;;;;;5086492;28;19911;-76
2022/07/31 10:32:30;;;;;;;;;;;28.90;99.90;;;;;;5086671;28;19916;-76
2022/07/31 10:34:56;;;;;;;;;;;29.00;99.90;;;;;;5095406;28;19928;-76
2022/07/31 10:37:27;;;;;;;;;;;29.10;99.90;;;;;;5095072;28;19950;-76
2022/07/31 10:39:53;;;;;;;;;;;28.90;99.90;;;;;;5095296;28;20093;-76
2022/07/31 10:42:37;;;;;;;;;;;29.30;99.90;;;;;;5095585;28;19957;-76
2022/07/31 10:45:05;;;;;;;;;;;29.50;99.90;;;;;;5094972;28;20318;-76
2022/07/31 10:47:31;;;;;;;;;;;29.60;99.90;;;;;;5095120;28;19907;-76
2022/07/31 10:49:57;;;;;;;;;;;29.10;99.90;;;;;;5095008;28;20353;-76
2022/07/31 10:52:30;;;;;;;;;;;28.80;99.90;;;;;;5095334;28;20283;-76
2022/07/31 10:55:00;;;;;;;;;;;28.50;99.90;;;;;;5076324;28;19912;-76
2022/07/31 10:57:26;;;;;;;;;;;28.40;99.90;;;;;;5074271;28;19909;-76
2022/07/31 10:59:52;;;;;;;;;;;28.50;99.90;;;;;;5076805;28;19908;-76
2022/07/31 11:02:30;;;;;;;;;;;28.20;99.90;;;;;;5091760;28;19915;-76
2022/07/31 11:05:10;;;;;;;;;;;28.00;99.90;;;;;;5089196;28;19913;-76
2022/07/31 11:07:35;;;;;;;;;;;27.90;99.90;;;;;;5082004;28;20008;-76
2022/07/31 11:10:08;;;;;;;;;;;28.40;99.90;;;;;;5082732;28;19995;-76
2022/07/31 11:12:34;;;;;;;;;;;28.80;99.90;;;;;;5094110;28;19918;-76
2022/07/31 11:15:00;;;;;;;;;;;28.90;99.90;;;;;;5094668;28;19912;-76
2022/07/31 11:17:32;;;;;;;;;;;28.60;99.90;;;;;;5094085;28;19914;-76
2022/07/31 11:19:58;;;;;;;;;;;28.10;99.90;;;;;;5094504;28;19939;-76
2022/07/31 11:22:24;;;;;;;;;;;28.30;99.90;;;;;;5093863;28;20329;-76
2022/07/31 11:24:57;;;;;;;;;;;28.50;99.90;;;;;;5058642;28;19923;-74
2022/07/31 11:27:29;;;;;;;;;;;28.60;99.90;;;;;;5072687;28;19916;-74
2022/07/31 11:30:01;;;;;;;;;;;29.10;99.90;;;;;;5086115;28;19953;-75
2022/07/31 11:32:27;;;;;;;;;;;29.10;99.90;;;;;;5094630;28;19942;-75
2022/07/31 11:34:54;;;;;;;;;;;29.00;99.90;;;;;;5094194;28;20344;-75
2022/07/31 11:37:22;;;;;;;;;;;28.80;99.90;;;;;;5090785;28;19907;-75
2022/07/31 11:39:48;;;;;;;;;;;28.90;99.90;;;;;;5087256;28;20401;-76
2022/07/31 11:42:14;;;;;;;;;;;28.80;99.90;;;;;;5094306;28;19908;-76
2022/07/31 11:44:39;;;;;;;;;;;28.90;99.90;;;;;;5094303;28;19915;-75
2022/07/31 11:47:05;;;;;;;;;;;28.80;99.90;;;;;;5094583;28;20378;-75
2022/07/31 11:49:34;;;;;;;;;;;28.90;99.90;;;;;;5094325;28;20053;-75
2022/07/31 11:52:00;;;;;;;;;;;29.00;99.90;;;;;;5094322;28;19908;-75
2022/07/31 11:54:26;;;;;;;;;;;29.10;99.90;;;;;;5094121;28;19973;-75
2022/07/31 11:56:52;;;;;;;;;;;28.80;99.90;;;;;;5094010;28;19908;-75
2022/07/31 11:59:27;;;;;;;;;;;28.80;99.90;;;;;;5094270;28;19912;-76
2022/07/31 12:01:53;;;;;;;;;;;29.10;99.90;;;;;;5094122;28;19957;-76
2022/07/31 12:04:18;;;;;;;;;;;29.50;99.90;;;;;;5094143;28;20375;-75
2022/07/31 12:06:44;;;;;;;;;;;29.60;99.90;;;;;;5094103;28;19933;-76
2022/07/31 12:09:10;;;;;;;;;;;29.60;99.90;;;;;;5094217;28;20449;-76
2022/07/31 12:11:35;;;;;;;;;;;29.60;99.90;;;;;;5094068;28;19908;-76
2022/07/31 12:14:01;;;;;;;;;;;29.80;99.90;;;;;;5093914;28;20329;-75
2022/07/31 12:16:37;;;;;;;;;;;29.90;99.90;;;;;;5093371;28;19998;-75
2022/07/31 12:19:02;;;;;;;;;;;29.80;99.90;;;;;;5093752;28;19935;-76
2022/07/31 12:21:32;;;;;;;;;;;29.90;99.90;;;;;;5093688;28;20362;-76
2022/07/31 12:23:59;;;;;;;;;;;30.20;99.90;;;;;;5093296;28;19916;-75
2022/07/31 12:26:29;;;;;;;;;;;30.30;99.90;;;;;;5092083;28;19908;-77
2022/07/31 12:28:56;;;;;;;;;;;30.10;99.90;;;;;;5078002;28;19915;-77
2022/07/31 12:31:21;;;;;;;;;;;30.00;99.90;;;;;;5082625;28;20434;-77
2022/07/31 12:33:47;;;;;;;;;;;29.70;99.50;;;;;;5074287;28;19951;-77
2022/07/31 12:36:14;;;;;;;;;;;29.50;99.90;;;;;;5079394;28;20012;-77
2022/07/31 12:38:40;;;;;;;;;;;29.50;99.90;;;;;;5074382;28;19911;-77
2022/07/31 12:41:05;;;;;;;;;;;29.30;99.90;;;;;;5082856;28;19922;-77
2022/07/31 12:43:31;;;;;;;;;;;29.10;99.90;;;;;;5078810;28;19961;-78
2022/07/31 12:45:59;;;;;;;;;;;29.20;99.90;;;;;;5078271;28;19908;-76
2022/07/31 12:48:27;;;;;;;;;;;29.40;99.90;;;;;;5060447;28;20299;-77
2022/07/31 12:50:53;;;;;;;;;;;29.60;99.90;;;;;;5057341;28;19940;-76
2022/07/31 12:53:19;;;;;;;;;;;29.60;99.90;;;;;;5056649;28;20392;-76
2022/07/31 12:55:44;;;;;;;;;;;29.60;99.90;;;;;;5056559;28;19908;-76
2022/07/31 12:58:10;;;;;;;;;;;29.50;99.90;;;;;;5079107;28;19922;-76
2022/07/31 13:00:36;;;;;;;;;;;29.50;99.90;;;;;;5076429;28;20285;-76
2022/07/31 13:03:01;;;;;;;;;;;29.50;99.90;;;;;;5081307;28;19912;-76
2022/07/31 13:05:28;;;;;;;;;;;29.80;99.90;;;;;;5076447;28;20410;-76
2022/07/31 13:07:53;;;;;;;;;;;29.70;99.90;;;;;;5075859;28;19915;-77
2022/07/31 13:10:19;;;;;;;;;;;29.70;99.90;;;;;;5076211;28;19909;-77
2022/07/31 13:12:48;;;;;;;;;;;29.70;99.90;;;;;;5084957;28;19994;-76
2022/07/31 13:15:15;;;;;;;;;;;29.90;99.90;;;;;;5077070;28;19913;-78
2022/07/31 13:17:41;;;;;;;;;;;29.80;99.90;;;;;;5076788;28;19912;-76
2022/07/31 13:20:06;;;;;;;;;;;29.80;99.90;;;;;;5076423;28;19912;-76
2022/07/31 13:22:32;;;;;;;;;;;29.80;99.90;;;;;;5076264;28;19908;-76
2022/07/31 13:24:58;;;;;;;;;;;29.90;99.90;;;;;;5076333;28;19923;-76
2022/07/31 13:27:23;;;;;;;;;;;30.00;99.90;;;;;;5067012;28;20385;-76
2022/07/31 13:29:49;;;;;;;;;;;30.20;99.90;;;;;;5079079;28;19914;-76
2022/07/31 13:32:15;;;;;;;;;;;30.20;99.90;;;;;;5078982;28;19942;-76
2022/07/31 13:34:41;;;;;;;;;;;30.10;99.90;;;;;;5083600;28;20019;-76
2022/07/31 13:37:06;;;;;;;;;;;30.30;99.90;;;;;;5079815;28;19995;-76
2022/07/31 13:39:32;;;;;;;;;;;30.40;99.90;;;;;;5083533;28;19970;-76
2022/07/31 13:41:58;;;;;;;;;;;30.20;99.90;;;;;;5076017;28;20007;-76
2022/07/31 13:44:23;;;;;;;;;;;30.20;99.90;;;;;;5085912;28;19955;-76
2022/07/31 13:46:49;;;;;;;;;;;30.20;99.90;;;;;;5096035;28;19912;-76
2022/07/31 13:49:14;;;;;;;;;;;30.00;99.90;;;;;;5083497;28;19912;-76
2022/07/31 13:51:40;;;;;;;;;;;29.80;99.90;;;;;;5087619;28;19915;-76
2022/07/31 13:54:06;;;;;;;;;;;29.50;99.90;;;;;;5096031;28;19908;-76
2022/07/31 13:56:32;;;;;;;;;;;29.30;99.90;;;;;;5089279;28;19916;-76
2022/07/31 13:58:57;;;;;;;;;;;29.10;99.90;;;;;;5055579;28;19919;-77
2022/07/31 14:01:23;;;;;;;;;;;29.00;99.90;;;;;;5055273;28;19912;-77
2022/07/31 14:03:48;;;;;;;;;;;28.80;99.90;;;;;;5055701;28;19913;-77
2022/07/31 14:06:14;;;;;;;;;;;28.80;99.90;;;;;;5055254;28;19954;-76
2022/07/31 14:08:40;;;;;;;;;;;28.70;99.90;;;;;;5055421;28;19913;-76
2022/07/31 14:11:05;;;;;;;;;;;28.70;99.90;;;;;;5055361;28;19909;-76
2022/07/31 14:13:31;;;;;;;;;;;28.80;99.90;;;;;;5055268;28;19909;-76
2022/07/31 14:15:56;;;;;;;;;;;28.90;99.90;;;;;;5054951;28;19908;-76
2022/07/31 14:18:22;;;;;;;;;;;29.00;99.90;;;;;;5055143;28;19920;-72